sensor_id;sensor_type;location;lat;lon;timestamp;pressure;altitude;pressure_sealevel;temperature;humidity
61055;BME280;46939;48.940;8.258;2022-10-16T17:00:21;100529.47;;;19.27;89.74
61055;BME280;46939;48.940;8.258;2022-10-16T17:02:50;100530.91;;;20.14;82.82
61055;BME280;46939;48.940;8.258;2022-10-16T17:05:19;100539.06;;;20.58;79.97
61055;BME280;46939;48.940;8.258;2022-10-16T17:07:51;100546.91;;;20.81;78.57
61055;BME280;46939;48.940;8.258;2022-10-16T17:10:19;100535.03;;;21.04;76.37
61055;BME280;46939;48.940;8.258;2022-10-16T17:12:48;100537.84;;;21.14;75.58
61055;BME280;46939;48.940;8.258;2022-10-16T17:15:17;100542.28;;;21.26;74.50
61055;BME280;46939;48.940;8.258;2022-10-16T17:17:48;100544.88;;;21.42;73.74
61055;BME280;46939;48.940;8.258;2022-10-16T17:20:17;100550.31;;;21.48;72.51
61055;BME280;46939;48.940;8.258;2022-10-16T17:22:46;100549.78;;;21.45;71.82
61055;BME280;46939;48.940;8.258;2022-10-16T17:25:14;100545.22;;;21.51;71.22
61055;BME280;46939;48.940;8.258;2022-10-16T17:27:43;100550.38;;;21.53;70.87
61055;BME280;46939;48.940;8.258;2022-10-16T17:30:12;100565.00;;;21.62;69.96
61055;BME280;46939;48.940;8.258;2022-10-16T17:32:40;100555.31;;;21.61;69.94
61055;BME280;46939;48.940;8.258;2022-10-16T17:35:12;100560.63;;;21.56;69.66
61055;BME280;46939;48.940;8.258;2022-10-16T17:37:41;100551.72;;;21.55;69.35
61055;BME280;46939;48.940;8.258;2022-10-16T17:40:10;100559.03;;;21.60;68.77
61055;BME280;46939;48.940;8.258;2022-10-16T17:42:39;100561.38;;;21.46;69.18
61055;BME280;46939;48.940;8.258;2022-10-16T17:45:08;100554.13;;;21.52;68.63
61055;BME280;46939;48.940;8.258;2022-10-16T17:47:37;100568.63;;;21.45;68.21
61055;BME280;46939;48.940;8.258;2022-10-16T17:50:06;100563.25;;;21.45;67.92
61055;BME280;46939;48.940;8.258;2022-10-16T17:52:38;100570.59;;;21.55;67.31
61055;BME280;46939;48.940;8.258;2022-10-16T17:55:07;100564.88;;;21.47;67.30
61055;BME280;46939;48.940;8.258;2022-10-16T17:57:37;100575.06;;;21.44;67.32
61055;BME280;46939;48.940;8.258;2022-10-16T18:00:07;100582.97;;;21.51;67.19
61055;BME280;46939;48.940;8.258;2022-10-16T18:02:35;100584.88;;;21.56;66.98
61055;BME280;46939;48.940;8.258;2022-10-16T18:05:07;100587.97;;;21.64;66.10
61055;BME280;46939;48.940;8.258;2022-10-16T18:07:39;100588.69;;;21.60;66.12
61055;BME280;46939;48.940;8.258;2022-10-16T18:10:09;100581.66;;;21.54;65.97
61055;BME280;46939;48.940;8.258;2022-10-16T18:12:38;100586.28;;;21.58;65.28
61055;BME280;46939;48.940;8.258;2022-10-16T18:15:07;100592.97;;;21.56;65.26
61055;BME280;46939;48.940;8.258;2022-10-16T18:17:36;100600.06;;;21.62;65.05
61055;BME280;46939;48.940;8.258;2022-10-16T18:20:07;100587.09;;;21.59;64.96
61055;BME280;46939;48.940;8.258;2022-10-16T18:22:45;100594.66;;;21.62;65.25
61055;BME280;46939;48.940;8.258;2022-10-16T18:25:16;100590.75;;;21.48;64.93
61055;BME280;46939;48.940;8.258;2022-10-16T18:27:45;100599.34;;;21.44;65.12
61055;BME280;46939;48.940;8.258;2022-10-16T18:30:14;100598.53;;;21.44;65.18
61055;BME280;46939;48.940;8.258;2022-10-16T18:32:48;100588.81;;;21.43;64.48
61055;BME280;46939;48.940;8.258;2022-10-16T18:35:27;100598.94;;;21.58;63.96
61055;BME280;46939;48.940;8.258;2022-10-16T18:38:02;100599.72;;;21.53;64.00
61055;BME280;46939;48.940;8.258;2022-10-16T18:40:59;100602.28;;;21.43;64.05
61055;BME280;46939;48.940;8.258;2022-10-16T18:43:36;100613.25;;;21.36;64.05
61055;BME280;46939;48.940;8.258;2022-10-16T18:46:10;100601.28;;;21.27;64.72
61055;BME280;46939;48.940;8.258;2022-10-16T18:48:55;100606.88;;;21.20;63.98
61055;BME280;46939;48.940;8.258;2022-10-16T18:51:30;100617.66;;;21.20;63.81
61055;BME280;46939;48.940;8.258;2022-10-16T18:54:05;100606.78;;;21.10;64.05
61055;BME280;46939;48.940;8.258;2022-10-16T18:56:37;100616.22;;;21.13;64.25
61055;BME280;46939;48.940;8.258;2022-10-16T18:59:08;100617.16;;;21.02;63.91
61055;BME280;46939;48.940;8.258;2022-10-16T19:01:38;100615.03;;;21.04;63.74
61055;BME280;46939;48.940;8.258;2022-10-16T19:04:17;100611.00;;;21.06;63.91
61055;BME280;46939;48.940;8.258;2022-10-16T19:06:54;100613.47;;;21.08;63.66
61055;BME280;46939;48.940;8.258;2022-10-16T19:09:32;100608.03;;;21.03;63.70
61055;BME280;46939;48.940;8.258;2022-10-16T19:12:01;100617.53;;;21.10;63.43
61055;BME280;46939;48.940;8.258;2022-10-16T19:14:39;100615.09;;;21.09;63.25
61055;BME280;46939;48.940;8.258;2022-10-16T19:17:13;100622.66;;;21.12;63.81
61055;BME280;46939;48.940;8.258;2022-10-16T19:19:45;100637.25;;;21.16;63.67
61055;BME280;46939;48.940;8.258;2022-10-16T19:22:21;100643.16;;;21.13;63.50
61055;BME280;46939;48.940;8.258;2022-10-16T19:25:27;100650.59;;;21.06;63.79
61055;BME280;46939;48.940;8.258;2022-10-16T19:27:58;100654.22;;;20.94;63.79
61055;BME280;46939;48.940;8.258;2022-10-16T19:30:35;100635.13;;;20.96;63.36
61055;BME280;46939;48.940;8.258;2022-10-16T19:33:08;100664.13;;;20.89;63.62
61055;BME280;46939;48.940;8.258;2022-10-16T19:35:41;100659.72;;;20.83;63.75
61055;BME280;46939;48.940;8.258;2022-10-16T19:38:10;100666.50;;;20.85;63.63
61055;BME280;46939;48.940;8.258;2022-10-16T19:40:41;100662.25;;;20.89;63.56
61055;BME280;46939;48.940;8.258;2022-10-16T19:43:10;100673.00;;;20.89;63.44
61055;BME280;46939;48.940;8.258;2022-10-16T19:46:24;100658.28;;;20.75;63.51
61055;BME280;46939;48.940;8.258;2022-10-16T19:48:55;100667.56;;;20.84;63.38
61055;BME280;46939;48.940;8.258;2022-10-16T19:51:24;100667.56;;;20.84;63.78
61055;BME280;46939;48.940;8.258;2022-10-16T19:53:55;100668.69;;;20.88;63.22
61055;BME280;46939;48.940;8.258;2022-10-16T19:56:28;100674.34;;;20.70;63.81
61055;BME280;46939;48.940;8.258;2022-10-16T19:59:01;100671.03;;;20.63;63.59
61055;BME280;46939;48.940;8.258;2022-10-16T20:01:31;100671.28;;;20.61;63.38
61055;BME280;46939;48.940;8.258;2022-10-16T20:04:00;100669.13;;;20.63;63.67
61055;BME280;46939;48.940;8.258;2022-10-16T20:06:29;100664.06;;;20.67;63.35
61055;BME280;46939;48.940;8.258;2022-10-16T20:08:58;100680.88;;;20.74;62.94
61055;BME280;46939;48.940;8.258;2022-10-16T20:11:30;100685.38;;;20.68;62.73
61055;BME280;46939;48.940;8.258;2022-10-16T20:13:59;100683.03;;;20.72;62.47
61055;BME280;46939;48.940;8.258;2022-10-16T20:16:29;100686.63;;;20.61;62.60
61055;BME280;46939;48.940;8.258;2022-10-16T20:18:58;100692.00;;;20.61;62.56
61055;BME280;46939;48.940;8.258;2022-10-16T20:21:28;100696.38;;;20.67;63.06
61055;BME280;46939;48.940;8.258;2022-10-16T20:23:59;100700.47;;;20.69;62.67
61055;BME280;46939;48.940;8.258;2022-10-16T20:26:32;100699.97;;;20.72;61.97
61055;BME280;46939;48.940;8.258;2022-10-16T20:29:01;100700.06;;;20.61;62.48
61055;BME280;46939;48.940;8.258;2022-10-16T20:31:31;100720.59;;;20.67;62.24
61055;BME280;46939;48.940;8.258;2022-10-16T20:34:03;100723.22;;;20.62;62.42
61055;BME280;46939;48.940;8.258;2022-10-16T20:36:35;100727.97;;;20.55;62.13
61055;BME280;46939;48.940;8.258;2022-10-16T20:39:05;100715.69;;;20.47;62.36
61055;BME280;46939;48.940;8.258;2022-10-16T20:41:37;100730.66;;;20.55;62.21
61055;BME280;46939;48.940;8.258;2022-10-16T20:44:05;100734.41;;;20.54;62.45
61055;BME280;46939;48.940;8.258;2022-10-16T20:46:34;100727.53;;;20.46;62.21
61055;BME280;46939;48.940;8.258;2022-10-16T20:49:03;100734.28;;;20.48;62.14
61055;BME280;46939;48.940;8.258;2022-10-16T20:51:33;100734.47;;;20.59;61.53
61055;BME280;46939;48.940;8.258;2022-10-16T20:54:03;100736.84;;;20.55;61.82
61055;BME280;46939;48.940;8.258;2022-10-16T20:56:34;100738.84;;;20.48;62.03
61055;BME280;46939;48.940;8.258;2022-10-16T20:59:05;100748.25;;;20.45;62.46
61055;BME280;46939;48.940;8.258;2022-10-16T21:01:34;100743.97;;;20.33;62.48
61055;BME280;46939;48.940;8.258;2022-10-16T21:04:05;100750.50;;;20.37;62.31
61055;BME280;46939;48.940;8.258;2022-10-16T21:06:35;100748.41;;;20.39;62.12
61055;BME280;46939;48.940;8.258;2022-10-16T21:09:05;100758.25;;;20.33;62.09
61055;BME280;46939;48.940;8.258;2022-10-16T21:11:36;100756.63;;;20.32;62.46
61055;BME280;46939;48.940;8.258;2022-10-16T21:14:08;100763.63;;;20.33;62.49
61055;BME280;46939;48.940;8.258;2022-10-16T21:16:37;100760.94;;;20.33;62.92
61055;BME280;46939;48.940;8.258;2022-10-16T21:19:05;100762.34;;;20.36;63.15
61055;BME280;46939;48.940;8.258;2022-10-16T21:21:36;100756.28;;;20.29;64.14
61055;BME280;46939;48.940;8.258;2022-10-16T21:24:05;100765.59;;;20.38;63.40
61055;BME280;46939;48.940;8.258;2022-10-16T21:26:35;100765.09;;;20.41;63.64
61055;BME280;46939;48.940;8.258;2022-10-16T21:29:07;100766.56;;;20.48;63.02
61055;BME280;46939;48.940;8.258;2022-10-16T21:31:36;100763.22;;;20.53;62.93
61055;BME280;46939;48.940;8.258;2022-10-16T21:34:05;100757.13;;;20.46;62.91
61055;BME280;46939;48.940;8.258;2022-10-16T21:36:35;100762.25;;;20.47;63.26
61055;BME280;46939;48.940;8.258;2022-10-16T21:39:06;100764.75;;;20.49;62.96
61055;BME280;46939;48.940;8.258;2022-10-16T21:41:36;100767.78;;;20.53;63.07
61055;BME280;46939;48.940;8.258;2022-10-16T21:44:08;100758.63;;;20.54;62.57
61055;BME280;46939;48.940;8.258;2022-10-16T21:46:38;100756.50;;;20.56;62.70
61055;BME280;46939;48.940;8.258;2022-10-16T21:49:10;100751.63;;;20.53;62.64
61055;BME280;46939;48.940;8.258;2022-10-16T21:51:41;100754.81;;;20.50;62.61
61055;BME280;46939;48.940;8.258;2022-10-16T21:54:11;100763.00;;;20.43;62.24
61055;BME280;46939;48.940;8.258;2022-10-16T21:56:40;100756.00;;;20.42;62.05
61055;BME280;46939;48.940;8.258;2022-10-16T21:59:12;100758.25;;;20.33;62.11
61055;BME280;46939;48.940;8.258;2022-10-16T22:01:42;100756.28;;;20.29;62.63
61055;BME280;46939;48.940;8.258;2022-10-16T22:04:11;100768.19;;;20.33;62.30
61055;BME280;46939;48.940;8.258;2022-10-16T22:06:41;100772.75;;;20.32;61.85
61055;BME280;46939;48.940;8.258;2022-10-16T22:09:10;100773.56;;;20.33;61.87
61055;BME280;46939;48.940;8.258;2022-10-16T22:11:42;100768.03;;;20.22;62.13
61055;BME280;46939;48.940;8.258;2022-10-16T22:14:15;100775.84;;;20.24;61.78
61055;BME280;46939;48.940;8.258;2022-10-16T22:16:45;100777.38;;;20.20;61.95
61055;BME280;46939;48.940;8.258;2022-10-16T22:19:15;100784.16;;;20.22;61.36
61055;BME280;46939;48.940;8.258;2022-10-16T22:21:46;100781.53;;;20.11;61.55
61055;BME280;46939;48.940;8.258;2022-10-16T22:24:16;100772.88;;;20.09;61.24
61055;BME280;46939;48.940;8.258;2022-10-16T22:26:45;100785.84;;;20.12;61.46
61055;BME280;46939;48.940;8.258;2022-10-16T22:29:16;100775.66;;;20.14;61.60
61055;BME280;46939;48.940;8.258;2022-10-16T22:31:45;100777.91;;;20.05;62.12
61055;BME280;46939;48.940;8.258;2022-10-16T22:34:13;100794.06;;;20.05;61.80
61055;BME280;46939;48.940;8.258;2022-10-16T22:36:42;100790.31;;;20.06;61.67
61055;BME280;46939;48.940;8.258;2022-10-16T22:39:10;100794.06;;;20.05;61.45
61055;BME280;46939;48.940;8.258;2022-10-16T22:41:39;100792.56;;;19.97;61.50
61055;BME280;46939;48.940;8.258;2022-10-16T22:44:10;100801.22;;;19.99;61.24
61055;BME280;46939;48.940;8.258;2022-10-16T22:46:41;100793.28;;;19.93;61.46
61055;BME280;46939;48.940;8.258;2022-10-16T22:49:10;100785.22;;;19.93;61.50
61055;BME280;46939;48.940;8.258;2022-10-16T22:51:38;100783.81;;;19.90;61.08
61055;BME280;46939;48.940;8.258;2022-10-16T22:54:07;100788.03;;;19.86;60.89
61055;BME280;46939;48.940;8.258;2022-10-16T22:56:35;100784.56;;;19.74;61.47
61055;BME280;46939;48.940;8.258;2022-10-16T22:59:04;100786.94;;;19.59;60.12
61055;BME280;46939;48.940;8.258;2022-10-16T23:01:35;100795.69;;;19.54;60.44
61055;BME280;46939;48.940;8.258;2022-10-16T23:04:08;100802.69;;;19.55;61.05
61055;BME280;46939;48.940;8.258;2022-10-16T23:06:36;100795.94;;;19.52;60.65
61055;BME280;46939;48.940;8.258;2022-10-16T23:09:05;100799.53;;;19.58;60.38
61055;BME280;46939;48.940;8.258;2022-10-16T23:11:33;100795.78;;;19.59;60.65
61055;BME280;46939;48.940;8.258;2022-10-16T23:14:02;100806.94;;;19.63;60.26
61055;BME280;46939;48.940;8.258;2022-10-16T23:16:31;100816.88;;;19.62;60.80
61055;BME280;46939;48.940;8.258;2022-10-16T23:18:59;100816.88;;;19.62;60.71
61055;BME280;46939;48.940;8.258;2022-10-16T23:21:30;100814.38;;;19.61;60.53
61055;BME280;46939;48.940;8.258;2022-10-16T23:23:59;100818.59;;;19.57;60.20
61055;BME280;46939;48.940;8.258;2022-10-16T23:26:27;100822.22;;;19.50;60.24
61055;BME280;46939;48.940;8.258;2022-10-16T23:28:57;100827.84;;;19.49;60.70
61055;BME280;46939;48.940;8.258;2022-10-16T23:31:27;100833.56;;;19.41;60.23
61055;BME280;46939;48.940;8.258;2022-10-16T23:33:57;100823.06;;;19.39;60.02
61055;BME280;46939;48.940;8.258;2022-10-16T23:36:27;100833.78;;;19.39;60.10
61055;BME280;46939;48.940;8.258;2022-10-16T23:38:58;100844.09;;;19.31;59.27
61055;BME280;46939;48.940;8.258;2022-10-16T23:41:26;100837.31;;;19.28;59.24
61055;BME280;46939;48.940;8.258;2022-10-16T23:43:55;100843.03;;;19.20;59.02
61055;BME280;46939;48.940;8.258;2022-10-16T23:46:23;100834.97;;;19.20;59.16
61055;BME280;46939;48.940;8.258;2022-10-16T23:48:52;100843.13;;;19.25;59.08
61055;BME280;46939;48.940;8.258;2022-10-16T23:51:21;100838.56;;;19.25;59.43
61055;BME280;46939;48.940;8.258;2022-10-16T23:53:50;100842.56;;;19.23;59.82
61055;BME280;46939;48.940;8.258;2022-10-16T23:56:22;100839.53;;;19.19;59.96
61055;BME280;46939;48.940;8.258;2022-10-16T23:58:50;100836.84;;;19.08;60.58
